createdAt,value
2018-07-07T00:00:11.474Z,16.90
2018-07-07T00:01:11.520Z,16.82
2018-07-07T00:02:11.421Z,16.80
2018-07-07T00:03:11.431Z,16.77
2018-07-07T00:04:11.383Z,16.80
2018-07-07T00:05:11.461Z,16.81
2018-07-07T00:06:11.322Z,16.69
2018-07-07T00:07:11.355Z,16.72
2018-07-07T00:08:11.277Z,16.75
2018-07-07T00:09:12.312Z,16.63
2018-07-07T00:10:11.231Z,16.72
2018-07-07T00:11:11.275Z,16.65
2018-07-07T00:12:11.190Z,16.80
2018-07-07T00:13:11.212Z,16.81
2018-07-07T00:14:11.164Z,16.78
2018-07-07T00:15:11.207Z,16.60
2018-07-07T00:16:11.124Z,16.62
2018-07-07T00:17:11.162Z,16.67
2018-07-07T00:18:11.058Z,16.66
2018-07-07T00:19:11.135Z,16.73
2018-07-07T00:20:11.025Z,16.72
2018-07-07T00:21:11.042Z,16.75
2018-07-07T00:22:10.985Z,16.72
2018-07-07T00:23:11.052Z,16.70
2018-07-07T00:24:10.912Z,16.80
2018-07-07T00:25:11.985Z,16.69
2018-07-07T00:26:10.863Z,16.67
2018-07-07T00:27:10.901Z,16.69
2018-07-07T00:28:10.831Z,16.72
2018-07-07T00:29:10.891Z,16.81
2018-07-07T00:30:10.798Z,16.69
2018-07-07T00:31:10.821Z,16.65
2018-07-07T00:32:10.741Z,16.65
2018-07-07T00:33:56.688Z,16.55
2018-07-07T00:34:56.704Z,16.69
2018-07-07T00:35:56.617Z,16.62
2018-07-07T00:36:57.621Z,16.50
2018-07-07T00:37:56.579Z,16.55
2018-07-07T00:38:56.613Z,16.51
2018-07-07T00:39:56.516Z,16.54
2018-07-07T00:40:57.551Z,16.47
2018-07-07T00:41:56.468Z,16.55
2018-07-07T00:42:56.532Z,16.42
2018-07-07T00:43:56.423Z,16.41
2018-07-07T00:44:56.496Z,16.37
2018-07-07T00:45:56.380Z,16.44
2018-07-07T00:46:56.545Z,16.34
2018-07-07T00:47:56.339Z,16.29
2018-07-07T00:48:57.402Z,16.30
2018-07-07T00:49:56.296Z,16.26
2018-07-07T00:50:56.295Z,16.23
2018-07-07T00:51:56.240Z,16.13
2018-07-07T00:52:56.298Z,16.17
2018-07-07T00:53:56.197Z,16.13
2018-07-07T00:54:57.231Z,16.11
2018-07-07T00:55:56.155Z,16.16
2018-07-07T00:56:56.230Z,16.14
2018-07-07T00:57:56.118Z,16.08
2018-07-07T00:58:56.134Z,16.08
2018-07-07T00:59:56.054Z,16.13
2018-07-07T01:00:56.152Z,16.14
2018-07-07T01:01:56.020Z,16.14
2018-07-07T01:02:56.056Z,16.13
2018-07-07T01:03:55.972Z,16.11
2018-07-07T01:04:55.960Z,16.18
2018-07-07T01:05:55.945Z,16.08
2018-07-07T01:06:57.013Z,16.16
2018-07-07T01:07:55.879Z,16.04
2018-07-07T01:08:57.938Z,16.04
2018-07-07T01:09:55.835Z,16.03
2018-07-07T01:10:55.901Z,15.98
2018-07-07T01:11:55.785Z,15.93
2018-07-07T01:12:55.814Z,15.92
2018-07-07T01:13:55.735Z,15.89
2018-07-07T01:14:55.828Z,15.93
2018-07-07T01:15:55.696Z,15.86
2018-07-07T01:16:57.787Z,15.85
2018-07-07T01:17:55.663Z,15.85
2018-07-07T01:19:01.495Z,15.89
2018-07-07T01:19:55.592Z,15.93
2018-07-07T01:20:55.659Z,15.84
2018-07-07T01:21:55.565Z,15.88
2018-07-07T01:22:55.570Z,15.89
2018-07-07T01:23:55.510Z,15.86
2018-07-07T01:24:55.610Z,15.88
2018-07-07T01:25:55.454Z,15.81
2018-07-07T01:26:55.497Z,15.73
2018-07-07T01:27:55.409Z,15.78
2018-07-07T01:28:55.508Z,15.74
2018-07-07T01:29:55.377Z,15.77
2018-07-07T01:30:55.418Z,15.74
2018-07-07T01:31:55.332Z,15.76
2018-07-07T01:32:55.331Z,15.77
2018-07-07T01:33:55.272Z,15.76
2018-07-07T01:34:56.373Z,15.85
2018-07-07T01:35:55.231Z,15.93
2018-07-07T01:36:55.252Z,15.93
2018-07-07T01:37:55.203Z,15.89
2018-07-07T01:38:55.281Z,15.91
2018-07-07T01:39:55.144Z,15.88
2018-07-07T01:40:55.178Z,15.95
2018-07-07T01:41:55.085Z,15.89
2018-07-07T01:42:55.104Z,15.89
2018-07-07T01:43:55.040Z,15.92
2018-07-07T01:44:55.094Z,15.93
2018-07-07T01:45:54.996Z,15.91
2018-07-07T01:46:55.024Z,15.92
2018-07-07T01:47:54.969Z,15.95
2018-07-07T01:48:55.029Z,15.91
2018-07-07T01:49:54.898Z,15.95
2018-07-07T01:50:54.928Z,15.91
2018-07-07T01:51:54.857Z,15.85
2018-07-07T01:52:54.956Z,15.88
2018-07-07T01:53:54.816Z,15.85
2018-07-07T01:54:54.853Z,15.92
2018-07-07T01:55:54.763Z,15.89
2018-07-07T01:56:54.767Z,15.92
2018-07-07T01:57:54.726Z,15.85
2018-07-07T01:58:55.810Z,15.84
2018-07-07T01:59:54.675Z,15.84
2018-07-07T02:00:54.689Z,15.86
2018-07-07T02:01:54.633Z,15.92
2018-07-07T02:02:55.728Z,15.85
2018-07-07T02:03:54.576Z,15.91
2018-07-07T02:04:54.612Z,15.86
2018-07-07T02:05:54.524Z,15.91
2018-07-07T02:06:54.523Z,15.88
2018-07-07T02:07:54.487Z,15.98
2018-07-07T02:08:54.542Z,16.06
2018-07-07T02:09:54.436Z,16.11
2018-07-07T02:10:54.453Z,16.06
2018-07-07T02:11:54.390Z,16.01
2018-07-07T02:12:54.463Z,16.06
2018-07-07T02:13:54.336Z,15.98
2018-07-07T02:15:41.777Z,15.99
2018-07-07T02:16:41.823Z,15.86
2018-07-07T02:17:41.690Z,15.88
2018-07-07T02:18:41.716Z,15.91
2018-07-07T02:19:41.660Z,15.98
2018-07-07T02:20:41.730Z,15.95
2018-07-07T02:21:41.604Z,15.91
2018-07-07T02:22:41.626Z,15.99
2018-07-07T02:23:41.551Z,15.86
2018-07-07T02:24:41.627Z,15.86
2018-07-07T02:25:41.517Z,15.95
2018-07-07T02:26:41.541Z,15.74
2018-07-07T02:27:41.479Z,15.77
2018-07-07T02:28:41.473Z,15.78
2018-07-07T02:29:41.428Z,15.76
2018-07-07T02:30:41.472Z,15.71
2018-07-07T02:31:41.368Z,15.76
2018-07-07T02:32:41.375Z,15.84
2018-07-07T02:33:41.323Z,15.71
2018-07-07T02:34:41.395Z,15.74
2018-07-07T02:35:41.276Z,15.76
2018-07-07T02:36:41.306Z,15.78
2018-07-07T02:37:41.256Z,15.77
2018-07-07T02:38:41.316Z,15.71
2018-07-07T02:39:41.197Z,15.78
2018-07-07T02:41:28.323Z,15.77
2018-07-07T02:42:28.344Z,15.73
2018-07-07T02:43:28.245Z,15.76
2018-07-07T02:44:28.256Z,15.70
2018-07-07T02:45:28.207Z,15.67
2018-07-07T02:46:29.288Z,15.71
2018-07-07T02:47:28.154Z,15.70
2018-07-07T02:48:29.192Z,15.59
2018-07-07T02:49:28.108Z,15.64
2018-07-07T02:50:28.180Z,15.56
2018-07-07T02:51:28.059Z,15.58
2018-07-07T02:52:29.174Z,15.55
2018-07-07T02:53:28.003Z,15.55
2018-07-07T02:54:27.999Z,15.66
2018-07-07T02:55:27.954Z,15.55
2018-07-07T02:56:28.036Z,15.62
2018-07-07T02:57:27.917Z,15.62
2018-07-07T02:58:27.926Z,15.58
2018-07-07T02:59:27.872Z,15.56
2018-07-07T03:00:27.949Z,15.58
2018-07-07T03:01:27.816Z,15.53
2018-07-07T03:02:27.849Z,15.49
2018-07-07T03:03:27.797Z,15.55
2018-07-07T03:04:27.793Z,15.48
2018-07-07T03:05:27.745Z,15.48
2018-07-07T03:06:27.772Z,15.41
2018-07-07T03:07:27.675Z,15.46
2018-07-07T03:08:28.706Z,15.41
2018-07-07T03:09:27.653Z,15.40
2018-07-07T03:10:27.695Z,15.41
2018-07-07T03:11:27.582Z,15.38
2018-07-07T03:12:27.607Z,15.33
2018-07-07T03:13:27.532Z,15.37
2018-07-07T03:14:27.518Z,15.33
2018-07-07T03:15:27.482Z,15.31
2018-07-07T03:16:27.552Z,15.31
2018-07-07T03:17:27.440Z,15.35
2018-07-07T03:18:27.445Z,15.43
2018-07-07T03:19:27.384Z,15.41
2018-07-07T03:20:27.473Z,15.43
2018-07-07T03:21:27.341Z,15.31
2018-07-07T03:22:27.366Z,15.31
2018-07-07T03:23:27.307Z,15.33
2018-07-07T03:24:27.385Z,15.27
2018-07-07T03:25:27.269Z,15.30
2018-07-07T03:26:27.289Z,15.19
2018-07-07T03:27:27.207Z,15.12
2018-07-07T03:28:27.222Z,15.16
2018-07-07T03:29:27.164Z,15.04
2018-07-07T03:30:27.218Z,15.04
2018-07-07T03:31:27.114Z,15.01
2018-07-07T03:32:28.154Z,14.97
2018-07-07T03:33:27.062Z,14.94
2018-07-07T03:34:27.141Z,15.03
2018-07-07T03:35:27.006Z,15.05
2018-07-07T03:36:27.092Z,15.13
2018-07-07T03:37:26.964Z,15.05
2018-07-07T03:38:26.963Z,15.03
2018-07-07T03:39:26.915Z,14.93
2018-07-07T03:40:26.972Z,15.00
2018-07-07T03:41:26.865Z,14.93
2018-07-07T03:42:26.997Z,14.86
2018-07-07T03:43:26.814Z,15.04
2018-07-07T03:44:26.899Z,14.97
2018-07-07T03:45:26.767Z,14.95
2018-07-07T03:46:27.837Z,14.83
2018-07-07T03:47:26.727Z,14.79
2018-07-07T03:48:26.726Z,14.86
2018-07-07T03:49:26.752Z,14.91
2018-07-07T03:50:26.737Z,14.82
2018-07-07T03:51:26.635Z,14.82
2018-07-07T03:52:26.641Z,14.82
2018-07-07T03:53:26.594Z,14.82
2018-07-07T03:54:26.658Z,14.67
2018-07-07T03:55:26.537Z,14.66
2018-07-07T03:56:27.590Z,14.60
2018-07-07T03:57:26.489Z,14.63
2018-07-07T03:58:26.583Z,14.57
2018-07-07T03:59:26.444Z,14.71
2018-07-07T04:00:26.495Z,14.63
2018-07-07T04:01:26.404Z,14.57
2018-07-07T04:02:26.399Z,14.61
2018-07-07T04:03:26.360Z,14.66
2018-07-07T04:04:26.425Z,14.61
2018-07-07T04:05:26.322Z,14.64
2018-07-07T04:06:26.318Z,14.69
2018-07-07T04:07:26.250Z,14.59
2018-07-07T04:08:26.339Z,14.63
2018-07-07T04:09:26.205Z,14.64
2018-07-07T04:10:26.248Z,14.61
2018-07-07T04:11:26.146Z,14.61
2018-07-07T04:12:26.167Z,14.64
2018-07-07T04:13:26.115Z,14.66
2018-07-07T04:15:19.105Z,14.69
2018-07-07T04:16:19.133Z,14.66
2018-07-07T04:18:12.538Z,14.66
2018-07-07T04:19:12.426Z,14.64
2018-07-07T04:20:12.532Z,14.64
2018-07-07T04:21:12.374Z,14.63
2018-07-07T04:22:12.394Z,14.63
2018-07-07T04:23:12.328Z,14.66
2018-07-07T04:24:12.314Z,14.60
2018-07-07T04:25:12.274Z,14.61
2018-07-07T04:26:12.317Z,14.61
2018-07-07T04:27:12.221Z,14.69
2018-07-07T04:28:12.229Z,14.69
2018-07-07T04:29:12.174Z,14.74
2018-07-07T04:30:12.252Z,14.75
2018-07-07T04:31:12.129Z,14.85
2018-07-07T04:32:12.155Z,14.86
2018-07-07T04:33:12.086Z,14.86
2018-07-07T04:34:12.173Z,14.80
2018-07-07T04:35:12.030Z,14.80
2018-07-07T04:36:12.084Z,14.90
2018-07-07T04:37:11.988Z,14.94
2018-07-07T04:38:11.988Z,14.85
2018-07-07T04:39:11.930Z,15.07
2018-07-07T04:40:12.022Z,14.97
2018-07-07T04:41:11.882Z,14.97
2018-07-07T04:42:11.919Z,14.98
2018-07-07T04:43:11.857Z,14.93
2018-07-07T04:44:11.922Z,14.86
2018-07-07T04:45:11.793Z,14.95
2018-07-07T04:46:11.835Z,14.98
2018-07-07T04:47:11.737Z,14.95
2018-07-07T04:48:12.778Z,14.97
2018-07-07T04:49:11.687Z,15.09
2018-07-07T04:50:11.768Z,15.16
2018-07-07T04:51:11.652Z,15.11
2018-07-07T04:52:11.672Z,15.18
2018-07-07T04:53:11.614Z,15.23
2018-07-07T04:54:11.687Z,15.22
2018-07-07T04:55:11.575Z,15.23
2018-07-07T04:56:11.592Z,15.22
2018-07-07T04:57:11.496Z,15.28
2018-07-07T04:58:11.495Z,15.31
2018-07-07T04:59:11.452Z,15.28
2018-07-07T05:00:22.061Z,15.37
2018-07-07T05:01:11.409Z,15.40
2018-07-07T05:02:18.100Z,15.53
2018-07-07T05:03:11.352Z,15.60
2018-07-07T05:04:17.991Z,15.55
2018-07-07T05:05:11.324Z,15.74
2018-07-07T05:06:35.031Z,15.77
2018-07-07T05:48:15.854Z,16.77
2018-07-07T05:49:15.786Z,16.60
2018-07-07T05:50:15.871Z,16.84
2018-07-07T05:51:15.749Z,16.75
2018-07-07T05:52:15.766Z,16.72
2018-07-07T05:53:15.703Z,16.82
2018-07-07T05:54:15.794Z,16.78
2018-07-07T05:55:15.645Z,16.82
2018-07-07T05:56:15.706Z,16.78
2018-07-07T05:57:15.604Z,16.70
2018-07-07T05:58:16.641Z,16.70
2018-07-07T05:59:15.533Z,16.70
2018-07-07T06:00:15.642Z,16.59
2018-07-07T06:01:15.519Z,16.65
2018-07-07T06:02:15.546Z,16.67
2018-07-07T06:03:15.450Z,16.63
2018-07-07T06:04:15.547Z,16.75
2018-07-07T06:05:15.410Z,16.77
2018-07-07T06:06:15.373Z,16.80
2018-07-07T06:07:15.475Z,16.92
2018-07-07T06:08:15.324Z,16.77
2018-07-07T06:09:15.376Z,16.78
2018-07-07T06:10:15.301Z,16.78
2018-07-07T06:11:15.395Z,16.84
2018-07-07T06:12:15.236Z,16.92
2018-07-07T06:13:15.302Z,16.95
2018-07-07T06:14:15.183Z,16.91
2018-07-07T06:15:15.212Z,17.00
2018-07-07T06:16:15.133Z,17.06
2018-07-07T06:17:15.269Z,17.09
2018-07-07T06:18:15.123Z,17.18
2018-07-07T06:19:15.052Z,17.06
2018-07-07T06:20:15.058Z,16.98
2018-07-07T06:21:16.072Z,17.20
2018-07-07T06:22:15.028Z,17.32
2018-07-07T06:23:16.109Z,17.35
2018-07-07T06:24:14.939Z,17.53
2018-07-07T06:25:14.972Z,17.47
2018-07-07T06:26:14.891Z,17.54
2018-07-07T06:27:15.008Z,17.60
2018-07-07T06:28:14.847Z,17.54
2018-07-07T06:29:14.904Z,17.65
2018-07-07T06:30:14.810Z,17.55
2018-07-07T06:31:14.915Z,17.63
2018-07-07T06:32:14.760Z,17.60
2018-07-07T06:33:14.831Z,17.68
2018-07-07T06:34:14.717Z,17.70
2018-07-07T06:35:14.841Z,17.74
2018-07-07T06:36:14.657Z,17.65
2018-07-07T06:37:14.769Z,17.68
2018-07-07T06:38:14.617Z,17.58
2018-07-07T06:39:14.582Z,17.71
2018-07-07T06:40:14.675Z,17.92
2018-07-07T06:41:14.538Z,17.79
2018-07-07T06:42:14.580Z,17.84
2018-07-07T06:43:14.491Z,17.91
2018-07-07T06:44:14.462Z,17.98
2018-07-07T06:45:14.610Z,17.92
2018-07-07T06:46:14.410Z,17.95
2018-07-07T06:47:35.402Z,17.99
2018-07-07T06:48:14.369Z,17.92
2018-07-07T06:49:19.133Z,17.81
2018-07-07T06:50:14.386Z,17.87
2018-07-07T06:51:25.080Z,17.87
2018-07-07T06:52:14.300Z,17.91
2018-07-07T06:54:12.250Z,17.96
2018-07-07T06:55:13.235Z,17.92
2018-07-07T06:56:12.114Z,17.96
2018-07-07T06:57:18.976Z,17.92
2018-07-07T06:58:12.049Z,18.01
2018-07-07T06:59:14.166Z,17.95
2018-07-07T07:00:11.998Z,17.98
2018-07-07T07:01:14.095Z,18.07
2018-07-07T07:02:11.948Z,18.11
2018-07-07T07:03:23.036Z,18.13
2018-07-07T07:04:11.915Z,18.11
2018-07-07T07:05:14.014Z,18.16
2018-07-07T07:06:11.865Z,18.25
2018-07-07T07:07:12.025Z,18.25
2018-07-07T07:08:11.806Z,18.36
2018-07-07T07:09:12.930Z,18.42
2018-07-07T07:10:11.757Z,18.44
2018-07-07T07:11:18.449Z,18.54
2018-07-07T07:12:11.711Z,18.62
2018-07-07T07:13:13.755Z,18.53
2018-07-07T07:14:11.663Z,18.66
2018-07-07T07:15:12.735Z,18.56
2018-07-07T07:16:11.616Z,18.50
2018-07-07T07:17:12.661Z,18.53
2018-07-07T07:18:11.561Z,18.44
2018-07-07T07:19:23.425Z,18.38
2018-07-07T07:20:11.512Z,18.31
2018-07-07T07:21:16.494Z,18.36
2018-07-07T07:22:11.467Z,18.36
2018-07-07T07:23:12.591Z,18.46
2018-07-07T07:24:11.446Z,18.47
2018-07-07T07:25:18.448Z,18.44
2018-07-07T07:27:42.018Z,18.56
2018-07-07T07:28:54.607Z,18.44
2018-07-07T07:29:41.912Z,18.47
2018-07-07T07:30:43.113Z,18.49
2018-07-07T07:31:41.864Z,18.56
2018-07-07T07:32:41.902Z,18.60
2018-07-07T07:33:41.849Z,18.65
2018-07-07T07:34:47.641Z,18.71
2018-07-07T07:35:41.771Z,18.72
2018-07-07T07:36:46.558Z,18.84
2018-07-07T07:37:41.722Z,18.83
2018-07-07T07:38:41.744Z,18.97
2018-07-07T07:39:41.672Z,18.89
2018-07-07T07:40:43.719Z,18.91
2018-07-07T07:41:41.621Z,18.91
2018-07-07T07:42:41.672Z,18.97
2018-07-07T07:43:41.575Z,19.02
2018-07-07T07:44:41.682Z,18.91
2018-07-07T07:45:41.549Z,18.93
2018-07-07T07:46:48.036Z,18.97
2018-07-07T07:47:41.482Z,19.02
2018-07-07T07:49:02.456Z,19.10
2018-07-07T07:49:41.443Z,19.17
2018-07-07T07:50:41.412Z,19.12
2018-07-07T07:51:41.415Z,19.20
2018-07-07T07:52:41.422Z,19.25
2018-07-07T07:53:42.462Z,19.10
2018-07-07T07:55:27.661Z,19.17
2018-07-07T07:56:27.562Z,19.17
2018-07-07T07:57:28.654Z,19.13
2018-07-07T07:58:27.503Z,19.17
2018-07-07T07:59:27.491Z,19.32
2018-07-07T08:00:28.571Z,19.38
2018-07-07T08:01:27.427Z,19.46
2018-07-07T08:02:28.487Z,19.49
2018-07-07T08:03:27.403Z,19.52
2018-07-07T08:04:33.414Z,19.52
2018-07-07T08:05:27.334Z,19.53
2018-07-07T08:06:33.935Z,19.60
2018-07-07T08:07:27.285Z,19.60
2018-07-07T08:08:38.963Z,19.67
2018-07-07T08:09:27.237Z,19.67
2018-07-07T08:10:39.903Z,19.65
2018-07-07T08:11:27.184Z,19.62
2018-07-07T08:12:38.915Z,19.72
2018-07-07T08:13:27.128Z,19.64
2018-07-07T08:14:38.909Z,19.76
2018-07-07T08:15:27.084Z,19.78
2018-07-07T08:16:27.144Z,19.70
2018-07-07T08:17:27.037Z,19.62
2018-07-07T08:18:27.056Z,19.75
2018-07-07T08:19:26.983Z,19.78
2018-07-07T08:20:27.070Z,19.87
2018-07-07T08:21:26.945Z,19.94
2018-07-07T08:22:27.001Z,20.10
2018-07-07T08:24:16.442Z,20.20
2018-07-07T08:25:16.394Z,20.26
2018-07-07T08:26:16.358Z,20.16
2018-07-07T08:27:16.331Z,20.27
2018-07-07T08:28:16.308Z,20.26
2018-07-07T08:29:27.127Z,20.37
2018-07-07T08:30:16.275Z,20.31
2018-07-07T08:31:17.324Z,20.31
2018-07-07T08:32:16.246Z,20.33
2018-07-07T08:33:27.165Z,20.34
2018-07-07T08:35:03.171Z,20.38
2018-07-07T08:36:02.015Z,20.53
2018-07-07T08:37:23.004Z,20.42
2018-07-07T08:38:01.989Z,20.44
2018-07-07T08:39:01.941Z,20.31
2018-07-07T08:40:07.540Z,20.46
2018-07-07T08:41:01.907Z,20.44
2018-07-07T08:42:02.970Z,20.53
2018-07-07T08:43:01.857Z,20.56
2018-07-07T08:44:01.956Z,20.42
2018-07-07T08:45:01.812Z,20.54
2018-07-07T08:46:01.845Z,20.53
2018-07-07T08:47:01.763Z,20.57
2018-07-07T08:48:47.693Z,20.78
2018-07-07T08:49:47.668Z,20.87
2018-07-07T08:50:48.657Z,20.87
2018-07-07T08:51:47.606Z,20.83
2018-07-07T08:52:47.710Z,20.93
2018-07-07T08:53:47.558Z,20.91
2018-07-07T08:54:47.655Z,20.88
2018-07-07T08:55:47.504Z,20.93
2018-07-07T08:56:47.577Z,20.94
2018-07-07T08:57:47.465Z,21.09
2018-07-07T08:58:47.476Z,21.01
2018-07-07T08:59:47.420Z,21.08
2018-07-07T09:00:47.496Z,21.24
2018-07-07T09:01:47.374Z,21.22
2018-07-07T09:02:47.345Z,21.38
2018-07-07T09:03:47.331Z,21.49
2018-07-07T09:04:49.377Z,21.45
2018-07-07T09:05:47.289Z,21.61
2018-07-07T09:07:33.043Z,21.55
2018-07-07T09:08:32.958Z,21.63
2018-07-07T09:09:33.019Z,21.63
2018-07-07T09:10:32.969Z,21.63
2018-07-07T09:12:25.772Z,21.61
2018-07-07T09:13:25.719Z,21.74
2018-07-07T09:14:25.813Z,21.68
2018-07-07T09:15:25.664Z,21.71
2018-07-07T09:16:25.632Z,21.82
2018-07-07T09:17:25.930Z,21.81
2018-07-07T09:18:25.708Z,22.01
2018-07-07T09:19:25.577Z,21.83
2018-07-07T09:20:25.553Z,21.89
2018-07-07T09:21:31.254Z,21.74
2018-07-07T09:22:25.499Z,21.70
2018-07-07T09:23:25.534Z,21.67
2018-07-07T09:24:25.471Z,21.73
2018-07-07T09:25:31.199Z,21.77
2018-07-07T09:26:25.407Z,21.68
2018-07-07T09:27:25.412Z,21.71
2018-07-07T09:28:25.363Z,21.77
2018-07-07T09:29:25.351Z,21.85
2018-07-07T09:30:25.398Z,22.04
2018-07-07T09:31:25.289Z,22.17
2018-07-07T09:32:25.315Z,22.19
2018-07-07T09:33:25.246Z,22.39
2018-07-07T09:34:31.261Z,22.49
2018-07-07T09:35:25.208Z,22.35
2018-07-07T09:36:26.239Z,22.33
2018-07-07T09:37:25.160Z,22.41
2018-07-07T09:38:29.739Z,22.42
2018-07-07T09:39:25.114Z,22.36
2018-07-07T09:40:35.693Z,22.30
2018-07-07T09:41:25.071Z,22.45
2018-07-07T09:42:25.050Z,22.44
2018-07-07T09:43:25.061Z,22.45
2018-07-07T09:44:25.019Z,22.45
2018-07-07T09:45:25.095Z,22.38
2018-07-07T09:46:24.954Z,22.31
2018-07-07T09:47:27.038Z,22.21
2018-07-07T09:50:49.021Z,22.31
2018-07-07T09:51:48.999Z,22.24
2018-07-07T09:52:48.992Z,22.14
2018-07-07T09:53:50.022Z,22.24
2018-07-07T09:54:48.909Z,22.30
2018-07-07T09:55:48.890Z,22.41
2018-07-07T09:56:48.851Z,22.60
2018-07-07T09:57:48.929Z,22.72
2018-07-07T09:58:48.825Z,22.81
2018-07-07T09:59:49.006Z,22.88
2018-07-07T10:00:48.770Z,22.93
2018-07-07T10:01:48.869Z,23.00
2018-07-07T10:02:48.724Z,23.06
2018-07-07T10:03:53.661Z,23.07
2018-07-07T10:04:48.672Z,23.12
2018-07-07T10:05:48.792Z,23.16
2018-07-07T10:06:48.626Z,23.15
2018-07-07T10:07:48.672Z,23.23
2018-07-07T10:08:48.581Z,23.18
2018-07-07T10:09:48.590Z,23.09
2018-07-07T10:10:48.544Z,23.11
2018-07-07T10:11:48.610Z,23.09
2018-07-07T10:12:48.515Z,23.09
2018-07-07T10:13:48.619Z,23.09
2018-07-07T10:14:48.463Z,23.21
2018-07-07T10:15:50.464Z,23.21
2018-07-07T10:16:48.411Z,23.22
2018-07-07T10:17:48.447Z,23.31
2018-07-07T10:18:48.355Z,23.31
2018-07-07T10:19:48.351Z,23.37
2018-07-07T10:20:48.367Z,23.44
2018-07-07T10:21:49.399Z,23.50
2018-07-07T10:22:48.303Z,23.45
2018-07-07T10:23:49.306Z,23.53
2018-07-07T10:24:48.227Z,23.54
2018-07-07T10:25:48.204Z,23.67
2018-07-07T10:26:53.093Z,23.50
2018-07-07T10:27:48.150Z,23.50
2018-07-07T10:28:49.227Z,23.42
2018-07-07T10:29:48.108Z,23.47
2018-07-07T10:30:48.116Z,23.50
2018-07-07T10:31:48.080Z,23.38
2018-07-07T10:32:53.685Z,23.49
2018-07-07T10:33:48.039Z,23.53
2018-07-07T10:34:49.078Z,23.56
2018-07-07T10:35:48.029Z,23.60
2018-07-07T10:40:24.751Z,23.64
2018-07-07T10:41:23.107Z,23.72
2018-07-07T10:42:23.158Z,23.63
2018-07-07T10:43:23.039Z,23.78
2018-07-07T10:44:23.054Z,23.94
2018-07-07T10:45:23.023Z,24.00
2018-07-07T10:46:23.023Z,24.18
2018-07-07T10:47:23.002Z,24.11
2018-07-07T10:48:23.046Z,24.09
2018-07-07T10:49:22.906Z,24.06
2018-07-07T10:50:22.965Z,23.97
2018-07-07T10:51:23.031Z,23.92
2018-07-07T10:52:23.950Z,24.00
2018-07-07T10:53:22.814Z,24.00
2018-07-07T10:54:22.953Z,23.92
2018-07-07T10:55:22.805Z,23.93
2018-07-07T10:56:22.803Z,23.77
2018-07-07T10:57:22.752Z,23.74
2018-07-07T10:58:22.799Z,23.99
2018-07-07T10:59:22.696Z,24.05
2018-07-07T11:00:22.674Z,24.15
2018-07-07T11:01:22.661Z,24.26
2018-07-07T11:02:22.631Z,24.34
2018-07-07T11:03:22.610Z,24.48
2018-07-07T11:04:22.595Z,24.61
2018-07-07T11:05:22.577Z,24.79
2018-07-07T11:06:22.539Z,24.70
2018-07-07T11:07:22.548Z,24.60
2018-07-07T11:08:22.492Z,24.44
2018-07-07T11:09:22.569Z,24.18
2018-07-07T11:10:22.460Z,24.16
2018-07-07T11:11:22.424Z,24.14
2018-07-07T11:12:22.484Z,24.19
2018-07-07T11:13:22.402Z,24.44
2018-07-07T11:14:22.722Z,24.39
2018-07-07T11:15:22.347Z,24.27
2018-07-07T11:16:22.321Z,24.15
2018-07-07T11:17:22.309Z,23.97
2018-07-07T11:18:22.282Z,23.81
2018-07-07T11:19:22.277Z,23.90
2018-07-07T11:20:22.279Z,24.05
2018-07-07T11:21:22.205Z,24.15
2018-07-07T11:22:23.282Z,24.21
2018-07-07T11:23:22.214Z,24.24
2018-07-07T11:24:22.167Z,24.15
2018-07-07T11:25:22.147Z,24.23
2018-07-07T11:26:22.199Z,24.39
2018-07-07T11:27:22.088Z,24.18
2018-07-07T11:28:22.091Z,24.18
2018-07-07T11:30:09.519Z,24.29
2018-07-07T11:31:09.454Z,24.27
2018-07-07T11:32:09.429Z,24.30
2018-07-07T11:33:09.453Z,24.27
2018-07-07T11:34:09.398Z,24.34
2018-07-07T11:35:09.474Z,24.36
2018-07-07T11:36:09.343Z,24.33
2018-07-07T11:37:09.485Z,24.37
2018-07-07T11:38:09.292Z,24.34
2018-07-07T11:39:09.271Z,24.26
2018-07-07T11:40:09.301Z,24.18
2018-07-07T11:41:09.247Z,24.23
2018-07-07T11:42:09.554Z,24.27
2018-07-07T11:43:09.189Z,24.29
2018-07-07T11:44:09.164Z,24.21
2018-07-07T11:45:09.156Z,24.23
2018-07-07T11:46:09.136Z,24.24
2018-07-07T11:47:09.149Z,24.51
2018-07-07T11:47:55.114Z,24.46
2018-07-07T11:48:55.064Z,24.49
2018-07-07T11:49:55.044Z,24.49
2018-07-07T11:50:55.023Z,24.53
2018-07-07T11:51:55.001Z,24.68
2018-07-07T11:52:54.984Z,24.77
2018-07-07T11:53:54.961Z,24.79
2018-07-07T11:54:54.933Z,24.75
2018-07-07T11:55:54.974Z,24.83
2018-07-07T11:56:54.923Z,24.77
2018-07-07T11:57:54.904Z,24.75
2018-07-07T11:58:40.656Z,24.64
2018-07-07T11:59:40.567Z,24.77
2018-07-07T12:00:40.605Z,24.82
2018-07-07T12:01:40.541Z,24.94
2018-07-07T12:02:40.492Z,25.12
2018-07-07T12:03:40.472Z,25.45
2018-07-07T12:04:40.573Z,25.61
2018-07-07T12:05:40.490Z,25.66
2018-07-07T12:06:40.440Z,25.48
2018-07-07T12:07:40.391Z,25.35
2018-07-07T12:08:40.387Z,25.09
2018-07-07T12:10:29.521Z,24.83
2018-07-07T12:11:26.012Z,24.75
2018-07-07T12:12:27.067Z,24.77
2018-07-07T12:13:25.953Z,24.56
2018-07-07T12:14:27.065Z,24.51
2018-07-07T12:15:25.912Z,24.36
2018-07-07T12:16:25.999Z,24.48
2018-07-07T12:17:26.096Z,24.42
2018-07-07T12:18:26.177Z,24.46
2018-07-07T12:19:25.843Z,24.51
2018-07-07T12:20:25.928Z,24.66
2018-07-07T12:22:11.579Z,24.79
2018-07-07T12:23:11.516Z,24.77
2018-07-07T12:24:11.563Z,24.75
2018-07-07T12:25:11.517Z,24.67
2018-07-07T12:26:11.442Z,24.61
2018-07-07T12:27:11.527Z,24.75
2018-07-07T12:28:11.407Z,24.86
2018-07-07T12:29:11.395Z,24.77
2018-07-07T12:30:57.184Z,24.83
2018-07-07T12:31:56.971Z,24.74
2018-07-07T12:32:57.258Z,24.71
2018-07-07T12:33:59.317Z,24.75
2018-07-07T12:36:29.489Z,24.89
2018-07-07T12:37:29.599Z,24.83
2018-07-07T12:38:29.605Z,24.84
2018-07-07T12:39:29.426Z,24.83
2018-07-07T12:40:29.426Z,24.82
2018-07-07T12:41:29.583Z,24.94
2018-07-07T12:42:29.459Z,24.93
2018-07-07T12:43:29.366Z,25.14
2018-07-07T12:44:29.380Z,25.20
2018-07-07T12:45:29.289Z,25.12
2018-07-07T12:46:29.268Z,25.11
2018-07-07T12:48:14.937Z,25.34
2018-07-07T12:49:14.912Z,25.26
2018-07-07T12:50:14.922Z,25.12
2018-07-07T12:51:14.849Z,25.24
2018-07-07T12:52:14.838Z,25.30
2018-07-07T12:53:14.802Z,25.46
2018-07-07T12:54:14.790Z,25.57
2018-07-07T12:55:14.763Z,25.57
2018-07-07T12:56:14.864Z,25.60
2018-07-07T12:57:14.731Z,25.60
2018-07-07T12:59:13.929Z,25.78
2018-07-07T13:00:14.964Z,25.86
2018-07-07T13:01:13.895Z,25.96
2018-07-07T13:02:13.975Z,26.12
2018-07-07T13:03:13.798Z,26.13
2018-07-07T13:04:13.793Z,26.11
2018-07-07T13:05:13.763Z,26.04
2018-07-07T13:06:13.736Z,26.01
2018-07-07T13:07:13.781Z,26.06
2018-07-07T13:08:13.724Z,26.13
2018-07-07T13:09:13.694Z,26.17
2018-07-07T13:10:13.654Z,25.94
2018-07-07T13:11:13.706Z,25.89
2018-07-07T13:12:13.621Z,25.75
2018-07-07T13:13:13.632Z,25.59
2018-07-07T13:14:13.578Z,25.67
2018-07-07T13:15:13.563Z,25.57
2018-07-07T13:16:13.707Z,25.56
2018-07-07T13:17:13.548Z,25.67
2018-07-07T13:18:13.548Z,25.72
2018-07-07T13:19:13.467Z,25.72
2018-07-07T13:20:13.457Z,25.57
2018-07-07T13:21:13.444Z,25.66
2018-07-07T13:22:13.780Z,25.85
2018-07-07T13:23:13.389Z,25.94
2018-07-07T13:24:13.367Z,26.01
2018-07-07T13:25:13.395Z,25.75
2018-07-07T13:26:13.318Z,25.69
2018-07-07T13:27:13.414Z,25.76
2018-07-07T13:28:13.266Z,25.57
2018-07-07T13:29:13.257Z,25.57
2018-07-07T13:30:13.240Z,25.59
2018-07-07T13:31:14.265Z,25.56
2018-07-07T13:32:13.188Z,25.54
2018-07-07T13:33:14.316Z,25.49
2018-07-07T13:34:13.146Z,25.36
2018-07-07T13:35:13.162Z,25.24
2018-07-07T13:36:13.111Z,25.19
2018-07-07T13:37:13.174Z,25.05
2018-07-07T13:38:13.074Z,24.97
2018-07-07T13:39:13.082Z,24.93
2018-07-07T13:40:13.020Z,25.08
2018-07-07T13:41:13.012Z,25.11
2018-07-07T13:42:12.994Z,25.41
2018-07-07T13:43:13.002Z,25.57
2018-07-07T13:44:12.936Z,25.61
2018-07-07T13:45:14.973Z,25.78
2018-07-07T13:46:12.904Z,25.83
2018-07-07T13:47:12.902Z,25.86
2018-07-07T13:48:12.854Z,25.90
2018-07-07T13:49:58.577Z,25.90
2018-07-07T13:50:59.621Z,25.78
2018-07-07T13:51:58.503Z,25.57
2018-07-07T13:52:58.538Z,25.67
2018-07-07T13:53:58.468Z,25.66
2018-07-07T13:54:58.520Z,25.74
2018-07-07T13:55:58.429Z,25.61
2018-07-07T13:56:58.413Z,25.57